Time;durP1;ratioP1;P1;durP2;ratioP2;P2;SDS_P1;SDS_P2;PMS_P1;PMS_P2;Temp;Humidity;BMP_temperature;BMP_pressure;BME280_temperature;BME280_humidity;BME280_pressure;Samples;Min_cycle;Max_cycle;Signal;HPM_P1;HPM_P2
2023/07/31 00:00:02;;;;;;;;;;;;;;;14.97;100.00;100927.78;5048434;28;2257;-76
2023/07/31 00:02:28;;;;;;;;;;;;;;;14.98;99.72;100924.19;5066206;28;1948;-77
2023/07/31 00:04:53;;;;;;;;;;;;;;;15.01;100.00;100912.59;5068274;28;1721;-76
2023/07/31 00:07:18;;;;;;;;;;;;;;;15.04;100.00;100912.31;5069705;28;1309;-76
2023/07/31 00:09:43;;;;;;;;;;;;;;;15.06;100.00;100920.81;5063885;28;1347;-76
2023/07/31 00:12:08;;;;;;;;;;;;;;;15.12;100.00;100921.03;5064773;28;1368;-76
2023/07/31 00:14:34;;;;;;;;;;;;;;;15.21;100.00;100914.06;5064441;28;1365;-76
2023/07/31 00:16:59;;;;;;;;;;;;;;;15.26;100.00;100911.00;5048341;28;1231;-77
2023/07/31 00:19:24;;;;;;;;;;;;;;;15.30;100.00;100913.13;5059742;28;1379;-76
2023/07/31 00:21:50;;;;;;;;;;;;;;;15.37;100.00;100908.97;5057167;28;1902;-76
2023/07/31 00:24:16;;;;;;;;;;;;;;;15.43;100.00;100896.25;5064542;28;1376;-77
2023/07/31 00:26:41;;;;;;;;;;;;;;;15.44;100.00;100903.13;5042139;28;1441;-76
2023/07/31 00:29:06;;;;;;;;;;;;;;;15.47;100.00;100894.94;5059726;28;1326;-77
2023/07/31 00:31:31;;;;;;;;;;;;;;;15.54;100.00;100898.56;5063977;28;1391;-77
2023/07/31 00:33:56;;;;;;;;;;;;;;;15.52;100.00;100900.53;5040683;28;1286;-76
2023/07/31 00:36:22;;;;;;;;;;;;;;;15.52;100.00;100892.69;5067447;28;996;-77
2023/07/31 00:38:47;;;;;;;;;;;;;;;15.60;100.00;100897.97;5073886;28;1192;-77
2023/07/31 00:41:12;;;;;;;;;;;;;;;15.54;100.00;100893.34;5053124;28;1913;-77
2023/07/31 00:43:37;;;;;;;;;;;;;;;15.59;100.00;100906.78;5074329;28;1109;-77
2023/07/31 00:46:03;;;;;;;;;;;;;;;15.56;100.00;100896.63;5072721;28;1162;-77
2023/07/31 00:48:28;;;;;;;;;;;;;;;15.57;100.00;100908.72;5060346;28;1064;-77
2023/07/31 00:50:53;;;;;;;;;;;;;;;15.58;100.00;100895.50;5058105;28;1286;-76
2023/07/31 00:53:18;;;;;;;;;;;;;;;15.59;100.00;100896.31;5067675;28;1068;-76
2023/07/31 00:55:44;;;;;;;;;;;;;;;15.58;100.00;100892.06;5046621;28;1148;-76
2023/07/31 00:58:09;;;;;;;;;;;;;;;15.62;100.00;100885.56;5064855;28;1167;-77
2023/07/31 01:00:35;;;;;;;;;;;;;;;15.61;100.00;100895.19;5069073;28;1165;-77
2023/07/31 01:03:00;;;;;;;;;;;;;;;15.59;100.00;100891.09;5075124;28;1965;-77
2023/07/31 01:05:32;;;;;;;;;;;;;;;15.62;100.00;100880.31;5065307;28;1049;-77
2023/07/31 01:08:04;;;;;;;;;;;;;;;15.61;100.00;100889.16;5064288;28;1287;-78
2023/07/31 01:10:40;;;;;;;;;;;;;;;15.63;100.00;100893.25;5045613;28;1105;-76
2023/07/31 01:13:05;;;;;;;;;;;;;;;15.62;100.00;100896.00;5066351;28;1316;-77
2023/07/31 01:15:30;;;;;;;;;;;;;;;15.66;100.00;100892.16;5066320;28;1384;-76
2023/07/31 01:17:56;;;;;;;;;;;;;;;15.62;100.00;100890.78;5062274;28;1204;-76
2023/07/31 01:20:22;;;;;;;;;;;;;;;15.62;100.00;100893.41;5052528;28;1436;-76
2023/07/31 01:22:47;;;;;;;;;;;;;;;15.61;100.00;100895.19;5064185;28;1906;-76
2023/07/31 01:25:31;;;;;;;;;;;;;;;15.63;100.00;100887.22;5070923;28;1260;-76
2023/07/31 01:28:03;;;;;;;;;;;;;;;15.64;100.00;100888.84;5065568;28;1705;-77
2023/07/31 01:30:33;;;;;;;;;;;;;;;15.64;100.00;100891.47;5039789;28;1249;-76
2023/07/31 01:32:58;;;;;;;;;;;;;;;15.72;100.00;100881.06;5042649;28;1276;-78
2023/07/31 01:35:25;;;;;;;;;;;;;;;15.62;100.00;100885.56;5040625;28;1694;-77
2023/07/31 01:37:52;;;;;;;;;;;;;;;15.64;100.00;100878.41;5042356;28;1397;-77
2023/07/31 01:40:17;;;;;;;;;;;;;;;15.63;100.00;100876.75;5052280;28;1582;-76
2023/07/31 01:42:42;;;;;;;;;;;;;;;15.64;100.00;100878.41;5076781;28;1923;-77
2023/07/31 01:45:08;;;;;;;;;;;;;;;15.64;100.00;100878.41;5068085;28;1029;-77
2023/07/31 01:47:33;;;;;;;;;;;;;;;15.63;100.00;100866.31;5045958;28;1308;-76
2023/07/31 01:49:58;;;;;;;;;;;;;;;15.62;100.00;100869.88;5047760;28;1435;-77
2023/07/31 01:52:23;;;;;;;;;;;;;;;15.62;100.00;100875.09;5064178;28;1820;-77
2023/07/31 01:54:48;;;;;;;;;;;;;;;15.64;100.00;100867.94;5065664;28;1312;-76
2023/07/31 01:57:14;;;;;;;;;;;;;;;15.64;100.00;100867.94;5050652;28;1411;-76
2023/07/31 01:59:39;;;;;;;;;;;;;;;15.63;100.00;100866.31;5054869;28;1237;-76
2023/07/31 02:02:04;;;;;;;;;;;;;;;15.63;100.00;100861.06;5073328;28;1971;-76
2023/07/31 02:04:29;;;;;;;;;;;;;;;15.64;100.00;100857.47;5059113;28;1270;-77
2023/07/31 02:06:55;;;;;;;;;;;;;;;15.66;100.00;100860.78;5050566;28;1381;-77
2023/07/31 02:09:20;;;;;;;;;;;;;;;15.62;100.00;100846.34;5059124;28;1240;-77
2023/07/31 02:11:45;;;;;;;;;;;;;;;15.62;100.00;100848.94;5044656;28;1721;-76
2023/07/31 02:14:10;;;;;;;;;;;;;;;15.62;100.00;100857.66;5044787;28;1499;-77
2023/07/31 02:16:35;;;;;;;;;;;;;;;15.63;100.00;100850.63;5066618;28;1193;-76
2023/07/31 02:19:01;;;;;;;;;;;;;;;15.73;100.00;100843.47;5060516;28;1590;-77
2023/07/31 02:21:26;;;;;;;;;;;;;;;15.64;100.00;100836.56;5064641;28;1969;-78
2023/07/31 02:23:51;;;;;;;;;;;;;;;15.65;100.00;100843.41;5057249;28;1348;-77
2023/07/31 02:26:16;;;;;;;;;;;;;;;15.63;100.00;100834.94;5061609;28;1213;-76
2023/07/31 02:28:43;;;;;;;;;;;;;;;15.63;100.00;100838.34;5064324;28;1423;-76
2023/07/31 02:31:08;;;;;;;;;;;;;;;15.64;100.00;100836.56;5061984;28;1328;-76
2023/07/31 02:33:33;;;;;;;;;;;;;;;15.65;100.00;100840.81;5059350;28;1182;-77
2023/07/31 02:35:58;;;;;;;;;;;;;;;15.64;100.00;100832.16;5063448;28;1266;-77
2023/07/31 02:38:23;;;;;;;;;;;;;;;15.64;100.00;100836.56;5056478;28;1250;-76
2023/07/31 02:40:49;;;;;;;;;;;;;;;15.64;100.00;100831.34;5059584;28;1316;-77
2023/07/31 02:43:14;;;;;;;;;;;;;;;15.63;100.00;100829.69;5050634;28;1977;-76
2023/07/31 02:45:39;;;;;;;;;;;;;;;15.67;100.00;100831.03;5048642;28;2240;-77
2023/07/31 02:48:04;;;;;;;;;;;;;;;15.65;100.00;100828.59;5068156;28;1110;-77
2023/07/31 02:50:30;;;;;;;;;;;;;;;15.64;100.00;100816.47;5077100;28;1339;-78
2023/07/31 02:52:55;;;;;;;;;;;;;;;15.63;100.00;100824.47;5069743;28;1206;-78
2023/07/31 02:55:20;;;;;;;;;;;;;;;15.70;100.00;100825.47;5068732;28;1160;-76
2023/07/31 02:57:45;;;;;;;;;;;;;;;15.62;100.00;100822.81;5051804;28;1349;-76
2023/07/31 03:00:11;;;;;;;;;;;;;;;15.61;100.00;100821.19;5054832;28;1207;-76
2023/07/31 03:02:36;;;;;;;;;;;;;;;15.58;100.00;100821.47;5042505;28;1893;-77
2023/07/31 03:05:01;;;;;;;;;;;;;;;15.57;100.00;100819.84;5066813;28;1240;-76
2023/07/31 03:07:26;;;;;;;;;;;;;;;15.56;100.00;100819.03;5064718;28;1412;-76
2023/07/31 03:09:52;;;;;;;;;;;;;;;15.56;100.00;100823.44;5039625;28;1364;-76
2023/07/31 03:12:17;;;;;;;;;;;;;;;15.57;100.00;100822.47;5059026;28;1314;-76
2023/07/31 03:14:42;;;;;;;;;;;;;;;15.53;100.00;100823.75;5056822;28;1099;-76
2023/07/31 03:17:07;;;;;;;;;;;;;;;15.53;100.00;100823.75;5067626;28;1177;-77
2023/07/31 03:19:33;;;;;;;;;;;;;;;15.50;100.00;100829.31;5064411;28;1027;-76
2023/07/31 03:21:58;;;;;;;;;;;;;;;15.50;100.00;100822.28;5064681;28;1894;-76
2023/07/31 03:24:24;;;;;;;;;;;;;;;15.48;100.00;100815.53;5063422;28;1329;-76
2023/07/31 03:26:49;;;;;;;;;;;;;;;15.47;100.00;100808.69;5061651;28;1770;-76
2023/07/31 03:29:14;;;;;;;;;;;;;;;15.47;100.00;100809.50;5067877;28;1686;-78
2023/07/31 03:31:39;;;;;;;;;;;;;;;15.46;100.00;100801.81;5065132;28;1382;-76
2023/07/31 03:34:04;;;;;;;;;;;;;;;15.45;100.00;100805.41;5069315;28;1156;-75
2023/07/31 03:36:29;;;;;;;;;;;;;;;15.48;100.00;100799.88;5059875;28;1645;-76
2023/07/31 03:38:55;;;;;;;;;;;;;;;15.46;100.00;100802.66;5070087;28;1010;-76
2023/07/31 03:41:20;;;;;;;;;;;;;;;15.44;100.00;100798.56;5065911;28;1901;-77
2023/07/31 03:43:46;;;;;;;;;;;;;;;15.44;100.00;100798.56;5067317;28;1456;-76
2023/07/31 03:46:11;;;;;;;;;;;;;;;15.43;100.00;100796.94;5044053;28;1572;-75
2023/07/31 03:48:37;;;;;;;;;;;;;;;15.40;100.00;100793.63;5048146;28;1746;-77
2023/07/31 03:51:02;;;;;;;;;;;;;;;15.38;100.00;100800.81;5061670;28;1257;-77
2023/07/31 03:53:28;;;;;;;;;;;;;;;15.40;100.00;100803.28;5069920;28;1270;-76
2023/07/31 03:55:53;;;;;;;;;;;;;;;15.40;100.00;100798.84;5068671;28;1271;-76
2023/07/31 03:58:18;;;;;;;;;;;;;;;15.39;100.00;100797.22;5066684;28;1589;-77
2023/07/31 04:00:43;;;;;;;;;;;;;;;15.40;100.00;100798.84;5067653;28;1237;-76
2023/07/31 04:03:08;;;;;;;;;;;;;;;15.40;100.00;100793.63;5041834;28;1902;-76
2023/07/31 04:05:37;;;;;;;;;;;;;;;15.40;100.00;100783.19;5061609;28;1270;-76
2023/07/31 04:08:03;;;;;;;;;;;;;;;15.39;100.00;100780.72;5074087;28;1317;-78
2023/07/31 04:10:28;;;;;;;;;;;;;;;15.39;100.00;100786.78;5067268;28;1010;-75
2023/07/31 04:12:53;;;;;;;;;;;;;;;15.40;100.00;100787.59;5073937;28;1671;-76
2023/07/31 04:15:18;;;;;;;;;;;;;;;15.40;100.00;100782.38;5071637;28;1535;-76
2023/07/31 04:17:44;;;;;;;;;;;;;;;15.40;100.00;100777.94;5065249;28;1285;-77
2023/07/31 04:20:09;;;;;;;;;;;;;;;15.40;100.00;100777.94;5060078;28;1550;-76
2023/07/31 04:22:34;;;;;;;;;;;;;;;15.40;100.00;100775.34;5067813;28;1882;-77
2023/07/31 04:25:00;;;;;;;;;;;;;;;15.40;100.00;100770.13;5057075;28;1305;-77
2023/07/31 04:27:25;;;;;;;;;;;;;;;15.40;100.00;100772.72;5066218;28;1232;-76
2023/07/31 04:29:50;;;;;;;;;;;;;;;15.41;100.00;100771.75;5053226;28;1176;-77
2023/07/31 04:32:16;;;;;;;;;;;;;;;15.41;100.00;100776.97;5071503;28;1322;-76
2023/07/31 04:34:41;;;;;;;;;;;;;;;15.41;100.00;100763.91;5066867;28;1121;-77
2023/07/31 04:37:07;;;;;;;;;;;;;;;15.40;100.00;100762.28;5064871;28;1030;-76
2023/07/31 04:39:32;;;;;;;;;;;;;;;15.40;100.00;100757.03;5049780;28;1181;-76
2023/07/31 04:41:57;;;;;;;;;;;;;;;15.40;100.00;100759.66;5069549;28;1971;-77
2023/07/31 04:44:22;;;;;;;;;;;;;;;15.41;100.00;100760.47;5052916;28;1180;-77
2023/07/31 04:46:47;;;;;;;;;;;;;;;15.39;100.00;100755.41;5065653;28;1057;-77
2023/07/31 04:49:13;;;;;;;;;;;;;;;15.40;100.00;100754.44;5047897;28;1388;-77
2023/07/31 04:51:38;;;;;;;;;;;;;;;15.39;100.00;100755.41;5049108;28;1411;-78
2023/07/31 04:54:03;;;;;;;;;;;;;;;15.39;100.00;100760.63;5066515;28;1089;-77
2023/07/31 04:56:28;;;;;;;;;;;;;;;15.39;100.00;100760.63;5067378;28;1163;-77
2023/07/31 04:58:54;;;;;;;;;;;;;;;15.39;100.00;100760.63;5055478;28;1314;-77
2023/07/31 05:01:19;;;;;;;;;;;;;;;15.39;100.00;100744.97;5072114;28;1901;-77
2023/07/31 05:03:44;;;;;;;;;;;;;;;15.35;100.00;100748.84;5065666;28;1112;-76
2023/07/31 05:06:09;;;;;;;;;;;;;;;15.34;100.00;100736.78;5046456;28;1218;-75
2023/07/31 05:08:35;;;;;;;;;;;;;;;15.32;100.00;100743.97;5052018;28;1378;-77
2023/07/31 05:11:00;;;;;;;;;;;;;;;15.30;100.00;100748.50;5070886;28;1173;-77
2023/07/31 05:13:25;;;;;;;;;;;;;;;15.28;100.00;100737.41;5068456;28;1062;-77
2023/07/31 05:15:50;;;;;;;;;;;;;;;15.27;100.00;100727.94;5045007;28;1431;-77
2023/07/31 05:18:16;;;;;;;;;;;;;;;15.24;100.00;100736.06;5071297;28;1240;-77
2023/07/31 05:20:41;;;;;;;;;;;;;;;15.24;100.00;100730.03;5064334;28;1194;-78
2023/07/31 05:23:06;;;;;;;;;;;;;;;15.23;100.00;100733.63;5068610;28;1885;-76
2023/07/31 05:25:32;;;;;;;;;;;;;;;15.23;100.00;100734.44;5050772;28;1280;-76
2023/07/31 05:27:57;;;;;;;;;;;;;;;15.22;100.00;100734.59;5045053;28;1542;-76
2023/07/31 05:30:22;;;;;;;;;;;;;;;15.21;100.00;100731.19;5064276;28;1349;-77
2023/07/31 05:32:47;;;;;;;;;;;;;;;15.22;100.00;100732.81;5047919;28;1253;-77
2023/07/31 05:35:13;;;;;;;;;;;;;;;15.18;100.00;100728.88;5064906;28;1263;-77
2023/07/31 05:37:38;;;;;;;;;;;;;;;15.19;100.00;100727.88;5067527;28;1154;-77
2023/07/31 05:40:03;;;;;;;;;;;;;;;15.19;100.00;100722.66;5069420;28;1019;-78
2023/07/31 05:42:29;;;;;;;;;;;;;;;15.18;100.00;100718.41;5071849;28;1894;-77
2023/07/31 05:44:54;;;;;;;;;;;;;;;15.19;100.00;100717.44;5049038;28;1386;-77
2023/07/31 05:47:19;;;;;;;;;;;;;;;15.20;100.00;100719.09;5071259;28;1157;-77
2023/07/31 05:49:44;;;;;;;;;;;;;;;15.20;100.00;100716.47;5066730;28;1598;-77
2023/07/31 05:52:10;;;;;;;;;;;;;;;15.19;100.00;100706.16;5045846;28;1085;-77
2023/07/31 05:54:35;;;;;;;;;;;;;;;15.19;100.00;100707.00;5047049;28;1292;-77
2023/07/31 05:57:00;;;;;;;;;;;;;;;15.19;100.00;100709.59;5059383;28;1317;-77
2023/07/31 05:59:26;;;;;;;;;;;;;;;15.19;100.00;100707.00;5062626;28;1554;-76
2023/07/31 06:01:51;;;;;;;;;;;;;;;15.19;100.00;100701.75;5056739;28;1894;-77
2023/07/31 06:04:16;;;;;;;;;;;;;;;15.20;100.00;100692.16;5059705;28;1383;-76
2023/07/31 06:06:41;;;;;;;;;;;;;;;15.21;100.00;100694.59;5063261;28;1546;-77
2023/07/31 06:09:06;;;;;;;;;;;;;;;15.23;100.00;100678.75;5047138;28;1361;-76
2023/07/31 06:11:32;;;;;;;;;;;;;;;15.26;100.00;100687.09;5060723;28;1483;-76
2023/07/31 06:13:57;;;;;;;;;;;;;;;15.28;100.00;100679.09;5065099;28;1407;-77
2023/07/31 06:16:22;;;;;;;;;;;;;;;15.30;100.00;100683.19;5063799;28;1376;-77
2023/07/31 06:18:48;;;;;;;;;;;;;;;15.31;100.00;100674.38;5045855;28;1456;-76
2023/07/31 06:21:13;;;;;;;;;;;;;;;15.33;100.00;100677.66;5045445;28;1996;-76
2023/07/31 06:23:38;;;;;;;;;;;;;;;15.33;100.00;100677.66;5061739;28;1243;-78
2023/07/31 06:26:03;;;;;;;;;;;;;;;15.34;100.00;100679.28;5057565;28;903;-76
2023/07/31 06:28:29;;;;;;;;;;;;;;;15.34;100.00;100674.06;5063520;28;1291;-76
2023/07/31 06:30:55;;;;;;;;;;;;;;;15.34;100.00;100668.81;5047104;28;1347;-78
2023/07/31 06:33:20;;;;;;;;;;;;;;;15.36;100.00;100666.84;5063376;28;1039;-77
2023/07/31 06:35:45;;;;;;;;;;;;;;;15.36;100.00;100668.66;5044525;28;1212;-78
2023/07/31 06:38:10;;;;;;;;;;;;;;;15.37;100.00;100658.06;5064516;28;1078;-76
2023/07/31 06:40:36;;;;;;;;;;;;;;;15.38;100.00;100659.69;5065140;28;1211;-77
2023/07/31 06:43:07;;;;;;;;;;;;;;;15.39;100.00;100656.09;5064843;28;1914;-78
2023/07/31 06:45:32;;;;;;;;;;;;;;;15.36;100.00;100640.72;5066251;28;1070;-77
2023/07/31 06:48:01;;;;;;;;;;;;;;;15.42;100.00;100644.50;5048269;28;1088;-76
2023/07/31 06:50:26;;;;;;;;;;;;;;;15.44;100.00;100646.97;5064667;28;952;-77
2023/07/31 06:52:51;;;;;;;;;;;;;;;15.46;100.00;100639.78;5062797;28;1083;-77
2023/07/31 06:55:21;;;;;;;;;;;;;;;15.48;100.00;100643.03;5063456;28;1106;-77
2023/07/31 06:57:47;;;;;;;;;;;;;;;15.47;100.00;100636.19;5062962;28;1025;-76
2023/07/31 07:00:13;;;;;;;;;;;;;;;15.50;100.00;100638.47;5067708;28;1098;-77
2023/07/31 07:02:38;;;;;;;;;;;;;;;15.52;100.00;100644.34;5065863;28;1917;-76
2023/07/31 07:05:03;;;;;;;;;;;;;;;15.53;100.00;100638.16;5065742;28;1857;-78
2023/07/31 07:07:29;;;;;;;;;;;;;;;15.55;100.00;100641.44;5062606;28;1721;-77
2023/07/31 07:09:54;;;;;;;;;;;;;;;15.56;100.00;100643.06;5062938;28;1093;-77
2023/07/31 07:12:19;;;;;;;;;;;;;;;15.55;100.00;100633.59;5063712;28;1338;-80
2023/07/31 07:14:47;;;;;;;;;;;;;;;15.57;100.00;100636.84;5046137;28;1275;-78
2023/07/31 07:17:12;;;;;;;;;;;;;;;15.60;100.00;100636.53;5071224;28;1272;-76
2023/07/31 07:19:39;;;;;;;;;;;;;;;15.62;100.00;100629.34;5061703;28;1244;-76
2023/07/31 07:22:05;;;;;;;;;;;;;;;15.63;100.00;100625.78;5044997;28;1898;-77
2023/07/31 07:24:30;;;;;;;;;;;;;;;15.64;100.00;100632.63;5063044;28;1247;-76
2023/07/31 07:26:56;;;;;;;;;;;;;;;15.63;100.00;100623.97;5061924;28;1129;-77
2023/07/31 07:29:21;;;;;;;;;;;;;;;15.64;100.00;100622.16;5065996;28;1228;-77
2023/07/31 07:31:46;;;;;;;;;;;;;;;15.66;100.00;100626.28;5070318;28;1303;-77
2023/07/31 07:34:11;;;;;;;;;;;;;;;15.69;100.00;100619.88;5068622;28;1204;-77
2023/07/31 07:36:37;;;;;;;;;;;;;;;15.71;100.00;100617.91;5068381;28;1319;-77
2023/07/31 07:39:02;;;;;;;;;;;;;;;15.74;100.00;100620.22;5067431;28;1178;-76
2023/07/31 07:41:27;;;;;;;;;;;;;;;15.76;100.00;100626.09;5072988;28;1894;-78
2023/07/31 07:43:53;;;;;;;;;;;;;;;15.74;100.00;100622.84;5049689;28;1333;-77
2023/07/31 07:46:18;;;;;;;;;;;;;;;15.75;100.00;100619.22;5071215;28;1208;-77
2023/07/31 07:48:43;;;;;;;;;;;;;;;15.78;100.00;100618.91;5051615;28;1345;-77
2023/07/31 07:51:08;;;;;;;;;;;;;;;15.78;100.00;100624.16;5061635;28;1237;-77
2023/07/31 07:53:33;;;;;;;;;;;;;;;15.81;100.00;100626.41;5065756;28;1225;-77
2023/07/31 07:55:59;;;;;;;;;;;;;;;15.82;100.00;100614.97;5065272;28;1252;-77
2023/07/31 07:58:24;;;;;;;;;;;;;;;15.84;100.00;100613.03;5076211;28;1370;-78
2023/07/31 08:00:52;;;;;;;;;;;;;;;15.85;100.00;100608.63;5063790;28;1216;-77
2023/07/31 08:03:17;;;;;;;;;;;;;;;15.86;100.00;100611.06;5064077;28;1898;-77
2023/07/31 08:05:43;;;;;;;;;;;;;;;15.88;100.00;100614.31;5061397;28;1209;-77
2023/07/31 08:08:08;;;;;;;;;;;;;;;15.89;100.00;100615.97;5066055;28;1152;-77
2023/07/31 08:10:33;;;;;;;;;;;;;;;15.90;100.00;100612.38;5063828;28;1278;-79
2023/07/31 08:12:58;;;;;;;;;;;;;;;15.97;100.00;100611.72;5060790;28;1264;-77
2023/07/31 08:15:23;;;;;;;;;;;;;;;15.90;100.00;100607.13;5062487;28;1570;-77
2023/07/31 08:17:49;;;;;;;;;;;;;;;15.92;100.00;100607.78;5050782;28;1430;-77
2023/07/31 08:20:14;;;;;;;;;;;;;;;15.91;100.00;100607.97;5064100;28;1275;-77
2023/07/31 08:22:39;;;;;;;;;;;;;;;15.91;100.00;100608.78;5063563;28;1890;-76
2023/07/31 08:25:06;;;;;;;;;;;;;;;15.93;100.00;100601.56;5067109;28;1052;-77
2023/07/31 08:27:31;;;;;;;;;;;;;;;15.98;100.00;100602.88;5048179;28;1268;-79
2023/07/31 08:29:57;;;;;;;;;;;;;;;15.99;100.00;100615.78;5065542;28;1287;-78
2023/07/31 08:32:22;;;;;;;;;;;;;;;16.02;100.00;100606.81;5066556;28;1129;-78
2023/07/31 08:34:47;;;;;;;;;;;;;;;16.05;100.00;100607.25;5062521;28;1919;-78
2023/07/31 08:37:12;;;;;;;;;;;;;;;16.05;100.00;100598.59;5046228;28;1176;-78
2023/07/31 08:39:39;;;;;;;;;;;;;;;16.04;100.00;100597.78;5067541;28;1058;-76
2023/07/31 08:42:07;;;;;;;;;;;;;;;16.07;100.00;100597.47;5071423;28;1973;-77
2023/07/31 08:44:33;;;;;;;;;;;;;;;16.08;100.00;100606.13;5049912;28;1547;-77
2023/07/31 08:46:59;;;;;;;;;;;;;;;16.07;100.00;100601.91;5060124;28;1095;-76
2023/07/31 08:49:24;;;;;;;;;;;;;;;16.06;100.00;100605.50;5069019;28;1116;-77
2023/07/31 08:51:50;;;;;;;;;;;;;;;16.09;100.00;100599.91;5069617;28;1316;-77
2023/07/31 08:54:15;;;;;;;;;;;;;;;16.11;100.00;100603.16;5069071;28;1132;-77
2023/07/31 08:56:41;;;;;;;;;;;;;;;16.13;100.00;100606.47;5071683;28;1159;-76
2023/07/31 08:59:07;;;;;;;;;;;;;;;16.16;100.00;100600.88;5064038;28;1019;-76
2023/07/31 09:01:35;;;;;;;;;;;;;;;16.15;100.00;100599.25;5065303;28;1913;-77
2023/07/31 09:04:01;;;;;;;;;;;;;;;16.14;100.00;100592.38;5065165;28;1213;-76
2023/07/31 09:06:28;;;;;;;;;;;;;;;16.17;100.00;100602.50;5060516;28;1430;-76
2023/07/31 09:08:53;;;;;;;;;;;;;;;16.18;100.00;100614.63;5049814;28;1241;-77
2023/07/31 09:11:18;;;;;;;;;;;;;;;16.19;100.00;100595.31;5046992;28;1232;-77
2023/07/31 09:13:44;;;;;;;;;;;;;;;16.19;100.00;100601.38;5063470;28;1471;-76
2023/07/31 09:16:10;;;;;;;;;;;;;;;16.19;100.00;100590.09;5062216;28;1098;-76
2023/07/31 09:18:56;;;;;;;;;;;;;;;16.21;100.00;100598.56;5063306;28;1389;-76
2023/07/31 09:21:21;;;;;;;;;;;;;;;16.22;100.00;100594.97;5062323;28;1959;-76
2023/07/31 09:23:47;;;;;;;;;;;;;;;16.24;100.00;100597.44;5059239;28;1357;-77
2023/07/31 09:26:29;;;;;;;;;;;;;;;16.22;100.00;100594.97;5065938;28;1204;-76
2023/07/31 09:28:54;;;;;;;;;;;;;;;16.24;100.00;100598.25;5026991;28;1257;-76
2023/07/31 09:31:31;;;;;;;;;;;;;;;16.25;100.00;100589.41;5047030;28;1185;-77
2023/07/31 09:33:56;;;;;;;;;;;;;;;16.28;100.00;100583.00;5043366;28;1501;-76
2023/07/31 09:36:21;;;;;;;;;;;;;;;16.29;100.00;100580.25;5042456;28;1041;-77
2023/07/31 09:38:47;;;;;;;;;;;;;;;16.30;100.00;100587.13;5029585;28;1249;-77
2023/07/31 09:41:13;;;;;;;;;;;;;;;16.31;100.00;100575.66;5040236;28;1906;-77
2023/07/31 09:43:38;;;;;;;;;;;;;;;16.34;100.00;100571.88;5031211;28;1628;-76
2023/07/31 09:46:03;;;;;;;;;;;;;;;16.35;100.00;100574.34;5026573;28;1119;-76
2023/07/31 09:48:28;;;;;;;;;;;;;;;16.35;100.00;100571.72;5029114;28;1318;-76
2023/07/31 09:50:54;;;;;;;;;;;;;;;16.33;100.00;100570.25;5045671;28;1180;-76
2023/07/31 09:53:27;;;;;;;;;;;;;;;16.39;100.00;100574.81;5032820;28;1398;-76
2023/07/31 09:55:53;;;;;;;;;;;;;;;16.42;100.00;100570.06;5039251;28;1500;-76
2023/07/31 09:58:19;;;;;;;;;;;;;;;16.50;100.00;100573.63;5046866;28;1213;-76
2023/07/31 10:00:44;;;;;;;;;;;;;;;16.52;100.00;100567.25;5048998;28;1280;-76
2023/07/31 10:03:10;;;;;;;;;;;;;;;16.60;100.00;100564.59;5041645;28;1906;-77
2023/07/31 10:05:38;;;;;;;;;;;;;;;16.68;100.00;100574.19;5045589;28;1221;-76
2023/07/31 10:08:03;;;;;;;;;;;;;;;16.78;100.00;100559.13;5048590;28;1231;-76
2023/07/31 10:10:29;;;;;;;;;;;;;;;16.80;100.00;100562.38;5048881;28;1161;-76
2023/07/31 10:12:55;;;;;;;;;;;;;;;16.83;100.00;100562.03;5042064;28;1289;-77
2023/07/31 10:15:21;;;;;;;;;;;;;;;16.87;100.00;100567.75;5030667;28;1297;-77
2023/07/31 10:17:47;;;;;;;;;;;;;;;16.91;100.00;100559.38;5041135;28;1674;-77
2023/07/31 10:20:14;;;;;;;;;;;;;;;16.96;100.00;100567.53;5043090;28;1163;-76
2023/07/31 10:22:46;;;;;;;;;;;;;;;16.99;100.00;100572.44;5024824;28;1890;-76
2023/07/31 10:25:11;;;;;;;;;;;;;;;17.04;100.00;100568.50;5027547;28;1582;-78
2023/07/31 10:27:38;;;;;;;;;;;;;;;17.08;100.00;100564.50;5052678;28;1228;-76
2023/07/31 10:30:04;;;;;;;;;;;;;;;17.08;100.00;100560.09;5047473;28;2309;-76
2023/07/31 10:32:30;;;;;;;;;;;;;;;17.19;100.00;100556.25;5062770;28;1300;-76
2023/07/31 10:34:55;;;;;;;;;;;;;;;17.20;100.00;100552.63;5067208;28;1361;-76
2023/07/31 10:37:36;;;;;;;;;;;;;;;17.23;100.00;100557.53;5073625;28;1116;-76
2023/07/31 10:40:01;;;;;;;;;;;;;;;17.26;100.00;100562.41;5069266;28;1030;-77
2023/07/31 10:42:37;;;;;;;;;;;;;;;17.34;100.00;100558.94;5073461;28;1985;-76
2023/07/31 10:45:06;;;;;;;;;;;;;;;17.32;100.00;100566.97;5062213;28;1095;-78
2023/07/31 10:47:36;;;;;;;;;;;;;;;17.32;100.00;100566.97;5069183;28;1089;-78
2023/07/31 10:50:11;;;;;;;;;;;;;;;17.30;100.00;100568.94;5070026;28;1095;-75
2023/07/31 10:52:37;;;;;;;;;;;;;;;17.27;100.00;100558.81;5048394;28;1185;-75
2023/07/31 10:55:14;;;;;;;;;;;;;;;17.24;100.00;100565.22;5051932;28;1223;-75
2023/07/31 10:57:44;;;;;;;;;;;;;;;17.26;100.00;100562.41;5051472;28;1343;-75
2023/07/31 11:00:18;;;;;;;;;;;;;;;17.28;100.00;100554.41;5066691;28;1186;-75
2023/07/31 11:02:55;;;;;;;;;;;;;;;17.27;100.00;100553.59;5058389;28;1963;-75
2023/07/31 11:05:22;;;;;;;;;;;;;;;17.26;100.00;100546.69;5063668;28;1056;-78
2023/07/31 11:07:50;;;;;;;;;;;;;;;17.26;100.00;100557.16;5060240;28;943;-76
2023/07/31 11:10:19;;;;;;;;;;;;;;;17.30;100.00;100553.22;5049689;28;1333;-77
2023/07/31 11:12:45;;;;;;;;;;;;;;;17.26;100.00;100546.69;5070471;28;1045;-78
2023/07/31 11:15:11;;;;;;;;;;;;;;;17.28;100.00;100557.03;5067418;28;1035;-77
2023/07/31 11:17:39;;;;;;;;;;;;;;;17.28;100.00;100549.97;5069634;28;975;-77
2023/07/31 11:20:06;;;;;;;;;;;;;;;17.31;100.00;100554.84;5068261;28;1048;-78
2023/07/31 11:22:31;;;;;;;;;;;;;;;17.34;100.00;100553.69;5063455;28;1931;-77
2023/07/31 11:24:56;;;;;;;;;;;;;;;17.35;100.00;100556.13;5065811;28;1340;-77
2023/07/31 11:27:21;;;;;;;;;;;;;;;17.38;100.00;100547.94;5066129;28;1257;-77
2023/07/31 11:29:47;;;;;;;;;;;;;;;17.41;100.00;100550.19;5060405;28;1280;-78
2023/07/31 11:32:17;;;;;;;;;;;;;;;17.45;100.00;100554.09;5062735;28;1237;-77
2023/07/31 11:34:54;;;;;;;;;;;;;;;17.53;100.00;100542.72;5039028;28;2315;-78
2023/07/31 11:37:20;;;;;;;;;;;;;;;17.47;100.00;100543.41;5048556;28;1376;-76
2023/07/31 11:39:58;;;;;;;;;;;;;;;17.46;100.00;100542.59;5048617;28;1286;-77
2023/07/31 11:42:23;;;;;;;;;;;;;;;17.48;100.00;100545.84;5067095;28;1893;-77
2023/07/31 11:44:48;;;;;;;;;;;;;;;17.50;100.00;100549.13;5062770;28;1318;-77
2023/07/31 11:47:14;;;;;;;;;;;;;;;17.52;100.00;100533.22;5064547;28;998;-78
2023/07/31 11:49:40;;;;;;;;;;;;;;;17.58;100.00;100539.56;5054328;28;1279;-77
2023/07/31 11:52:05;;;;;;;;;;;;;;;17.59;100.00;100535.94;5063418;28;1324;-77
2023/07/31 11:54:30;;;;;;;;;;;;;;;17.59;100.00;100546.44;5061301;28;1065;-77
2023/07/31 11:56:57;;;;;;;;;;;;;;;17.60;100.00;100542.81;5064290;28;1283;-77
2023/07/31 11:59:22;;;;;;;;;;;;;;;17.61;100.00;100533.97;5044236;28;1271;-77
2023/07/31 12:01:53;;;;;;;;;;;;;;;17.64;100.00;100546.72;5048385;28;1894;-76
2023/07/31 12:04:19;;;;;;;;;;;;;;;17.61;100.00;100549.72;5062860;28;1228;-77
2023/07/31 12:06:44;;;;;;;;;;;;;;;17.60;100.00;100548.06;5046614;28;1523;-78
2023/07/31 12:09:09;;;;;;;;;;;;;;;17.59;100.00;100543.81;5047412;28;1253;-77
2023/07/31 12:11:44;;;;;;;;;;;;;;;17.57;100.00;100543.19;5060598;28;1169;-77
2023/07/31 12:14:22;;;;;;;;;;;;;;;17.57;100.00;100543.19;5063472;28;1196;-77
2023/07/31 12:16:47;;;;;;;;;;;;;;;17.55;100.00;100555.63;5061317;28;1291;-77
2023/07/31 12:19:12;;;;;;;;;;;;;;;17.52;100.00;100557.63;5068770;28;1070;-77
2023/07/31 12:21:38;;;;;;;;;;;;;;;17.49;100.00;100558.00;5048534;28;1890;-77
2023/07/31 12:24:03;;;;;;;;;;;;;;;17.45;100.00;100556.72;5063641;28;1240;-77
2023/07/31 12:26:34;;;;;;;;;;;;;;;17.42;100.00;100541.31;5067550;28;1261;-77
2023/07/31 12:28:59;;;;;;;;;;;;;;;17.39;100.00;100546.94;5062194;28;2211;-77
2023/07/31 12:31:27;;;;;;;;;;;;;;;17.39;100.00;100540.88;5069926;28;1168;-76